Time;durP1;ratioP1;P1;durP2;ratioP2;P2;SDS_P1;SDS_P2;PMS_P1;PMS_P2;Temp;Humidity;BMP_temperature;BMP_pressure;BME280_temperature;BME280_humidity;BME280_pressure;Samples;Min_cycle;Max_cycle;Signal;HPM_P1;HPM_P2
2022/04/21 00:02:09;;;;;;;18.75;9.68;;;;;;;;;;4881777;29;20111;-70
2022/04/21 00:04:35;;;;;;;15.85;9.60;;;;;;;;;;4882233;29;20052;-71
2022/04/21 00:07:01;;;;;;;22.77;10.13;;;;;;;;;;4882239;29;20522;-73
2022/04/21 00:09:27;;;;;;;19.88;10.75;;;;;;;;;;4881983;29;20433;-73
2022/04/21 00:11:53;;;;;;;23.00;11.85;;;;;;;;;;4882730;29;20044;-73
2022/04/21 00:14:19;;;;;;;24.83;12.50;;;;;;;;;;4866996;29;20052;-73
2022/04/21 00:16:45;;;;;;;23.45;11.93;;;;;;;;;;4882143;29;20044;-73
2022/04/21 00:19:11;;;;;;;27.95;12.70;;;10.20;99.90;;;;;;4882622;29;20184;-73
2022/04/21 00:24:22;;;;;;;29.02;12.88;;;;;;;;;;4878454;29;20049;-73
2022/04/21 00:26:48;;;;;;;23.40;12.30;;;;;;;;;;4875180;29;20108;-72
2022/04/21 00:29:14;;;;;;;26.63;12.73;;;;;;;;;;4873609;29;20055;-72
2022/04/21 00:31:40;;;;;;;30.15;13.80;;;;;;;;;;4865243;29;20052;-72
2022/04/21 00:34:06;;;;;;;33.88;13.43;;;;;;;;;;4863744;29;20037;-72
2022/04/21 00:36:32;;;;;;;31.85;14.48;;;;;;;;;;4878197;29;20036;-70
2022/04/21 00:38:58;;;;;;;34.80;13.98;;;;;;;;;;4882065;29;20140;-70
2022/04/21 00:41:24;;;;;;;30.55;14.52;;;;;;;;;;4874175;29;20041;-72
2022/04/21 00:43:50;;;;;;;39.50;15.10;;;;;;;;;;4864442;29;20037;-72
2022/04/21 00:46:21;;;;;;;40.65;15.80;;;9.20;99.40;;;;;;4867272;29;20415;-72
2022/04/21 00:48:47;;;;;;;32.03;16.27;;;;;;;;;;4894190;29;20053;-70
2022/04/21 00:51:13;;;;;;;32.08;14.90;;;8.70;99.90;;;;;;4894121;29;20565;-71
2022/04/21 00:53:39;;;;;;;28.95;15.23;;;;;;;;;;4894432;29;20072;-71
2022/04/21 00:56:06;;;;;;;33.20;15.25;;;9.20;99.00;;;;;;4865935;29;20039;-70
2022/04/21 00:58:35;;;;;;;34.70;16.95;;;9.30;99.40;;;;;;4882102;29;20052;-71
2022/04/21 01:01:01;;;;;;;33.53;16.83;;;;;;;;;;4879317;29;20060;-70
2022/04/21 01:03:27;;;;;;;34.28;16.27;;;;;;;;;;4864120;29;20084;-73
2022/04/21 01:05:53;;;;;;;35.47;16.48;;;;;;;;;;4863230;29;20512;-73
2022/04/21 01:08:19;;;;;;;36.78;16.42;;;;;;;;;;4881835;29;20040;-71
2022/04/21 01:10:47;;;;;;;34.78;16.50;;;;;;;;;;4882058;29;20032;-70
2022/04/21 01:13:13;;;;;;;33.45;15.48;;;9.90;99.90;;;;;;4894059;29;20127;-71
2022/04/21 01:15:40;;;;;;;37.25;17.67;;;9.20;99.40;;;;;;4894149;29;20045;-71
2022/04/21 01:18:07;;;;;;;41.40;17.60;;;;;;;;;;4878359;29;20064;-70
2022/04/21 01:20:33;;;;;;;32.72;16.83;;;9.10;99.40;;;;;;4881309;29;20048;-70
2022/04/21 01:23:00;;;;;;;35.78;18.20;;;;;;;;;;4879457;29;20083;-70
2022/04/21 01:25:26;;;;;;;40.28;17.80;;;;;;;;;;4871690;29;20072;-70
2022/04/21 01:27:59;;;;;;;36.15;17.05;;;10.00;99.90;;;;;;4876118;29;20045;-70
2022/04/21 01:30:25;;;;;;;32.35;17.27;;;;;;;;;;4881269;29;20548;-70
2022/04/21 01:32:52;;;;;;;38.47;18.75;;;;;;;;;;4868503;29;20393;-70
2022/04/21 01:35:18;;;;;;;37.30;17.48;;;;;;;;;;4878085;29;20037;-72
2022/04/21 01:43:13;;;;;;;36.83;16.75;;;;;;;;;;4879899;29;20040;-73
2022/04/21 01:45:39;;;;;;;36.85;16.52;;;;;;;;;;4850150;29;20060;-73
2022/04/21 01:48:05;;;;;;;38.38;17.98;;;;;;;;;;4852536;29;20482;-72
2022/04/21 01:50:31;;;;;;;39.90;17.73;;;;;;;;;;4862716;29;20052;-73
2022/04/21 01:52:58;;;;;;;39.92;19.02;;;9.10;99.50;;;;;;4877733;29;20041;-73
2022/04/21 01:55:25;;;;;;;34.10;17.13;;;;;;;;;;4862736;29;20067;-73
2022/04/21 01:57:51;;;;;;;38.80;17.70;;;;;;;;;;4872180;29;20093;-73
2022/04/21 02:00:17;;;;;;;38.38;19.23;;;;;;;;;;4881605;29;20048;-73
2022/04/21 02:02:43;;;;;;;39.20;18.63;;;;;;;;;;4877675;29;20041;-73
2022/04/21 02:05:09;;;;;;;36.72;17.88;;;7.90;99.90;;;;;;4880087;29;20037;-73
2022/04/21 02:07:36;;;;;;;37.95;18.88;;;;;;;;;;4879500;29;20048;-73
2022/04/21 02:10:05;;;;;;;40.85;18.92;;;8.60;99.90;;;;;;4880505;29;20084;-73
2022/04/21 02:12:31;;;;;;;44.40;18.00;;;;;;;;;;4861181;29;20500;-70
2022/04/21 02:15:01;;;;;;;38.50;17.50;;;;;;;;;;4862527;29;20048;-70
2022/04/21 02:17:28;;;;;;;37.15;17.73;;;;;;;;;;4877351;29;20057;-70
2022/04/21 02:19:54;;;;;;;35.60;17.30;;;;;;;;;;4862221;29;20049;-70
2022/04/21 02:22:20;;;;;;;38.47;18.42;;;;;;;;;;4864623;29;20401;-70
2022/04/21 02:24:47;;;;;;;37.45;17.77;;;;;;;;;;4878166;29;20053;-70
2022/04/21 02:27:13;;;;;;;44.80;18.48;;;;;;;;;;4866359;29;20474;-70
2022/04/21 02:29:39;;;;;;;43.85;18.17;;;;;;;;;;4862409;29;20561;-70
2022/04/21 02:32:05;;;;;;;42.95;18.63;;;;;;;;;;4893336;29;20485;-70
2022/04/21 02:34:31;;;;;;;38.25;18.48;;;;;;;;;;4883261;29;20082;-70
2022/04/21 02:36:57;;;;;;;46.92;20.65;;;;;;;;;;4881548;29;20140;-72
2022/04/21 02:39:24;;;;;;;41.80;20.15;;;;;;;;;;4882433;29;20434;-70
2022/04/21 02:41:51;;;;;;;41.63;19.85;;;8.50;99.90;;;;;;4862269;29;20084;-73
2022/04/21 02:44:17;;;;;;;42.80;20.88;;;;;;;;;;4896481;29;20048;-70
2022/04/21 02:46:43;;;;;;;48.55;20.17;;;;;;;;;;4865494;29;20045;-71
2022/04/21 02:49:09;;;;;;;42.15;20.08;;;;;;;;;;4878882;29;20132;-70
2022/04/21 02:51:35;;;;;;;44.38;20.40;;;;;;;;;;4880869;29;20033;-71
2022/04/21 02:59:31;;;;;;;42.50;20.10;;;;;;;;;;4896551;29;20405;-70
2022/04/21 03:01:57;;;;;;;46.67;20.60;;;;;;;;;;4865579;29;20583;-69
2022/04/21 03:04:23;;;;;;;46.50;19.65;;;;;;;;;;4879397;29;20488;-69
2022/04/21 03:06:49;;;;;;;37.63;17.92;;;8.70;99.90;;;;;;4883527;29;20100;-70
2022/04/21 03:09:15;;;;;;;36.83;19.25;;;9.40;99.90;;;;;;4871973;29;20501;-70
2022/04/21 03:11:41;;;;;;;35.38;19.00;;;;;;;;;;4896030;29;20052;-70
2022/04/21 03:14:07;;;;;;;46.17;17.70;;;;;;;;;;4879796;29;20041;-70
2022/04/21 03:16:33;;;;;;;40.58;19.48;;;;;;;;;;4864961;29;20045;-69
2022/04/21 03:18:59;;;;;;;38.85;17.73;;;;;;;;;;4872916;29;20068;-70
2022/04/21 03:24:21;;;;;;;35.63;17.48;;;8.50;99.90;;;;;;4895875;29;20064;-72
2022/04/21 03:26:49;;;;;;;35.42;17.23;;;8.50;99.90;;;;;;4864949;29;20386;-73
2022/04/21 03:29:15;;;;;;;38.42;17.73;;;;;;;;;;4873958;29;20048;-73
2022/04/21 03:31:45;;;;;;;31.58;17.42;;;;;;;;;;4871971;29;20082;-73
2022/04/21 03:34:12;;;;;;;35.97;17.42;;;8.30;99.90;;;;;;4873389;29;20503;-73
2022/04/21 03:36:39;;;;;;;36.28;16.98;;;;;;;;;;4871062;29;20045;-73
2022/04/21 03:39:05;;;;;;;34.13;17.48;;;;;;;;;;4879561;29;20052;-73
2022/04/21 03:41:31;;;;;;;32.22;16.48;;;;;;;;;;4875289;29;20051;-73
2022/04/21 03:43:58;;;;;;;31.45;16.25;;;;;;;;;;4882273;29;20131;-73
2022/04/21 03:46:24;;;;;;;31.17;16.45;;;;;;;;;;4873260;29;20123;-73
2022/04/21 03:48:50;;;;;;;30.70;15.98;;;;;;;;;;4867322;29;20045;-73
2022/04/21 03:51:16;;;;;;;33.45;16.85;;;;;;;;;;4875540;29;20132;-72
2022/04/21 03:53:42;;;;;;;28.55;15.10;;;;;;;;;;4864389;29;20049;-73
2022/04/21 03:56:08;;;;;;;33.42;17.02;;;;;;;;;;4879175;29;20048;-73
2022/04/21 03:58:34;;;;;;;34.22;15.60;;;;;;;;;;4879789;29;20055;-73
2022/04/21 04:01:00;;;;;;;33.20;16.52;;;;;;;;;;4873821;29;20053;-73
2022/04/21 04:03:26;;;;;;;34.05;15.93;;;;;;;;;;4881749;29;20045;-73
2022/04/21 04:05:52;;;;;;;33.65;15.88;;;;;;;;;;4878996;29;20186;-73
2022/04/21 04:11:03;;;;;;;30.45;15.50;;;;;;;;;;4879751;29;20047;-73
2022/04/21 04:13:29;;;;;;;34.72;15.90;;;;;;;;;;4882560;29;20374;-73
2022/04/21 04:15:56;;;;;;;29.40;15.55;;;;;;;;;;4870537;29;20041;-70
2022/04/21 04:18:23;;;;;;;34.10;16.38;;;;;;;;;;4866753;29;20067;-70
2022/04/21 04:20:49;;;;;;;29.02;14.88;;;;;;;;;;4876991;29;20052;-73
2022/04/21 04:23:20;;;;;;;26.95;14.57;;;8.00;99.90;;;;;;4882132;29;20167;-70
2022/04/21 04:25:46;;;;;;;32.78;15.30;;;;;;;;;;4882356;29;20077;-72
2022/04/21 04:28:12;;;;;;;30.30;15.15;;;;;;;;;;4864516;29;20048;-72
2022/04/21 04:30:39;;;;;;;29.42;13.98;;;;;;;;;;4866473;29;20037;-71
2022/04/21 04:33:05;;;;;;;31.58;14.43;;;;;;;;;;4865396;29;20045;-70
2022/04/21 04:35:31;;;;;;;25.88;14.38;;;;;;;;;;4866831;29;20051;-70
2022/04/21 04:37:58;;;;;;;29.77;14.20;;;;;;;;;;4851512;29;20136;-73
2022/04/21 04:40:25;;;;;;;31.42;14.93;;;;;;;;;;4864078;29;20041;-70
2022/04/21 04:42:53;;;;;;;23.58;14.13;;;8.20;99.90;;;;;;4881618;29;20051;-70
2022/04/21 04:48:04;;;;;;;27.25;14.23;;;7.30;99.90;;;;;;4893862;29;20048;-70
2022/04/21 04:50:30;;;;;;;26.00;13.80;;;;;;;;;;4863069;29;20052;-69
2022/04/21 04:52:58;;;;;;;28.58;14.27;;;8.00;99.90;;;;;;4876673;29;20565;-70
2022/04/21 04:55:25;;;;;;;28.13;14.30;;;8.10;99.90;;;;;;4882101;29;20127;-68
2022/04/21 04:57:51;;;;;;;28.38;14.73;;;;;;;;;;4856338;29;20203;-70
2022/04/21 05:00:18;;;;;;;29.13;13.90;;;;;;;;;;4881855;29;20072;-70
2022/04/21 05:02:47;;;;;;;26.88;14.73;;;;;;;;;;4864736;29;20045;-71
2022/04/21 05:05:13;;;;;;;31.35;15.23;;;;;;;;;;4881427;29;20454;-71
2022/04/21 05:07:39;;;;;;;27.88;14.25;;;;;;;;;;4874103;29;20386;-70
2022/04/21 05:10:09;;;;;;;29.33;14.73;;;;;;;;;;4879448;29;20127;-72
2022/04/21 05:12:35;;;;;;;25.75;13.45;;;;;;;;;;4866313;29;20041;-72
2022/04/21 05:15:01;;;;;;;27.35;13.60;;;;;;;;;;4881507;29;20521;-72
2022/04/21 05:17:28;;;;;;;25.05;13.68;;;;;;;;;;4873649;29;20128;-72
2022/04/21 05:19:54;;;;;;;32.25;13.70;;;;;;;;;;4863311;29;20084;-72
2022/04/21 05:22:25;;;;;;;30.85;13.65;;;8.10;99.90;;;;;;4893512;29;20052;-72
2022/04/21 05:24:52;;;;;;;25.45;13.13;;;8.00;99.90;;;;;;4868718;29;20056;-72
2022/04/21 05:27:19;;;;;;;27.48;13.88;;;;;;;;;;4862711;29;20045;-70
2022/04/21 05:32:35;;;;;;;32.97;13.88;;;8.20;99.90;;;;;;4904622;29;20052;-71
2022/04/21 05:35:02;;;;;;;23.35;13.55;;;7.30;99.90;;;;;;4867426;29;20037;-72
2022/04/21 05:37:28;;;;;;;25.00;13.57;;;;;;;;;;4873144;29;20072;-72
2022/04/21 05:39:55;;;;;;;23.98;13.18;;;;;;;;;;4880648;29;20139;-72
2022/04/21 05:42:25;;;;;;;29.67;13.65;;;8.20;99.90;;;;;;4863282;29;20052;-72
2022/04/21 05:44:54;;;;;;;24.77;13.25;;;8.20;99.90;;;;;;4862774;29;20049;-72
2022/04/21 05:47:21;;;;;;;27.33;14.00;;;;;;;;;;4879842;29;20041;-72
2022/04/21 05:49:47;;;;;;;28.05;13.48;;;;;;;;;;4876549;29;20081;-72
2022/04/21 05:52:14;;;;;;;23.88;12.77;;;;;;;;;;4863213;29;20033;-71
2022/04/21 05:54:40;;;;;;;22.23;12.63;;;;;;;;;;4865986;29;20041;-72
2022/04/21 05:57:07;;;;;;;22.27;12.43;;;;;;;;;;4881303;29;20128;-72
2022/04/21 05:59:34;;;;;;;27.65;13.15;;;;;;;;;;4866379;29;20409;-72
2022/04/21 06:02:00;;;;;;;26.60;13.90;;;;;;;;;;4893841;29;20055;-72
2022/04/21 06:04:26;;;;;;;23.80;12.10;;;;;;;;;;4878760;29;20051;-72
2022/04/21 06:06:52;;;;;;;25.38;12.93;;;;;;;;;;4867443;29;20187;-72
2022/04/21 06:09:19;;;;;;;27.85;13.30;;;;;;;;;;4871994;29;20041;-72
2022/04/21 06:11:45;;;;;;;22.95;12.07;;;;;;;;;;4897364;29;20512;-72
2022/04/21 06:14:11;;;;;;;25.83;12.77;;;;;;;;;;4864047;29;20055;-72
2022/04/21 06:16:37;;;;;;;24.13;12.82;;;;;;;;;;4880958;29;20442;-72
2022/04/21 06:19:03;;;;;;;22.00;12.32;;;;;;;;;;4877567;29;20505;-72
2022/04/21 06:21:29;;;;;;;23.77;12.13;;;;;;;;;;4884278;29;20072;-72
2022/04/21 06:23:55;;;;;;;24.48;13.23;;;;;;;;;;4867359;29;20067;-71
2022/04/21 06:26:25;;;;;;;24.20;12.73;;;;;;;;;;4874220;29;20390;-71
2022/04/21 06:28:51;;;;;;;24.00;12.35;;;;;;;;;;4858377;29;20076;-71
2022/04/21 06:31:17;;;;;;;25.13;13.13;;;;;;;;;;4882692;29;20083;-73
2022/04/21 06:33:43;;;;;;;19.75;12.35;;;9.70;99.90;;;;;;4868392;29;20044;-73
2022/04/21 06:36:09;;;;;;;26.60;12.90;;;;;;;;;;4874996;29;20117;-72
2022/04/21 06:38:35;;;;;;;26.85;12.95;;;;;;;;;;4866516;29;20513;-72
2022/04/21 06:41:02;;;;;;;25.85;12.02;;;;;;;;;;4872184;29;20122;-72
2022/04/21 06:48:57;;;;;;;21.83;11.98;;;;;;;;;;4895483;29;20128;-72
2022/04/21 06:51:27;;;;;;;21.60;11.25;;;9.50;99.90;;;;;;4897679;29;20088;-73
2022/04/21 06:53:53;;;;;;;21.58;12.10;;;;;;;;;;4869275;29;20052;-73
2022/04/21 06:56:19;;;;;;;18.02;10.57;;;;;;;;;;4858824;29;20100;-73
2022/04/21 06:58:46;;;;;;;20.90;11.18;;;;;;;;;;4896558;29;20087;-73
2022/04/21 07:01:12;;;;;;;20.85;10.73;;;;;;;;;;4897581;29;20389;-72
2022/04/21 07:03:38;;;;;;;22.60;11.45;;;;;;;;;;4876118;29;20075;-73
2022/04/21 07:06:05;;;;;;;18.77;10.40;;;;;;;;;;4869392;29;20061;-73
2022/04/21 07:08:31;;;;;;;17.52;9.38;;;;;;;;;;4866071;29;20048;-73
2022/04/21 07:10:57;;;;;;;22.63;9.63;;;;;;;;;;4869391;29;20239;-73
2022/04/21 07:13:23;;;;;;;18.00;8.85;;;;;;;;;;4871012;29;20047;-73
2022/04/21 07:15:49;;;;;;;17.17;9.45;;;;;;;;;;4849892;29;20068;-73
2022/04/21 07:18:16;;;;;;;21.20;10.15;;;;;;;;;;4862739;29;20056;-73
2022/04/21 07:20:42;;;;;;;20.02;10.05;;;;;;;;;;4894904;29;20490;-73
2022/04/21 07:23:08;;;;;;;17.02;9.63;;;;;;;;;;4881713;29;20112;-73
2022/04/21 07:25:35;;;;;;;19.40;8.68;;;;;;;;;;4864837;29;20037;-72
2022/04/21 07:28:01;;;;;;;17.65;9.07;;;;;;;;;;4865060;29;20123;-73
2022/04/21 07:30:27;;;;;;;17.40;8.25;;;;;;;;;;4865073;29;20045;-73
2022/04/21 07:32:53;;;;;;;19.50;9.60;;;;;;;;;;4880122;29;20418;-73
2022/04/21 07:35:19;;;;;;;19.25;9.07;;;;;;;;;;4865020;29;20401;-74
2022/04/21 07:37:46;;;;;;;14.63;8.57;;;;;;;;;;4864732;29;20048;-73
2022/04/21 07:40:12;;;;;;;19.40;8.95;;;9.90;99.90;;;;;;4880176;29;20409;-73
2022/04/21 07:42:38;;;;;;;18.73;8.43;;;;;;;;;;4879786;29;20045;-73
2022/04/21 07:45:04;;;;;;;13.85;7.13;;;11.70;99.90;;;;;;4864501;29;20045;-73
2022/04/21 07:47:30;;;;;;;13.55;7.15;;;;;;;;;;4864562;29;20045;-73
2022/04/21 07:49:56;;;;;;;13.43;6.47;;;;;;;;;;4864518;29;20045;-73
2022/04/21 07:55:08;;;;;;;14.95;6.63;;;11.20;96.60;;;;;;4895544;29;20056;-73
2022/04/21 07:57:34;;;;;;;12.60;6.70;;;11.60;99.90;;;;;;4895524;29;20037;-73
2022/04/21 08:00:00;;;;;;;12.23;6.47;;;;;;;;;;4895809;29;20438;-73
2022/04/21 08:02:26;;;;;;;13.77;6.13;;;;;;;;;;4879541;29;20044;-71
2022/04/21 08:04:52;;;;;;;9.43;5.30;;;;;;;;;;4864471;29;20132;-72
2022/04/21 08:07:18;;;;;;;10.80;5.97;;;;;;;;;;4864402;29;20045;-72
2022/04/21 08:09:44;;;;;;;12.90;6.30;;;;;;;;;;4864159;29;20045;-72
2022/04/21 08:12:10;;;;;;;11.07;5.25;;;;;;;;;;4864387;29;20056;-72
2022/04/21 08:14:36;;;;;;;9.68;5.50;;;;;;;;;;4848816;29;20049;-72
2022/04/21 08:17:06;;;;;;;9.32;5.43;;;11.50;97.70;;;;;;4863578;29;20045;-73
2022/04/21 08:19:32;;;;;;;8.30;5.03;;;11.90;94.40;;;;;;4848580;29;20053;-72
2022/04/21 08:21:58;;;;;;;12.32;5.00;;;;;;;;;;4864237;29;20051;-72
2022/04/21 08:32:41;;;;;;;9.32;4.93;;;;;;;;;;4894797;29;20498;-73
2022/04/21 08:35:09;;;;;;;10.00;5.57;;;11.60;97.20;;;;;;4894578;29;20108;-73
2022/04/21 08:37:36;;;;;;;10.75;5.40;;;12.50;93.60;;;;;;4848323;29;20047;-72
2022/04/21 08:40:06;;;;;;;9.52;5.15;;;12.50;92.70;;;;;;4863569;29;20128;-72
2022/04/21 08:42:37;;;;;;;9.73;5.88;;;12.60;93.60;;;;;;4863576;29;20386;-72
2022/04/21 08:45:03;;;;;;;11.23;5.35;;;;;;;;;;4863514;29;20052;-72
2022/04/21 08:47:29;;;;;;;9.60;5.47;;;13.10;96.90;;;;;;4863509;29;20398;-73
2022/04/21 08:50:12;;;;;;;8.93;5.32;;;13.20;96.70;;;;;;4894364;29;20048;-73
2022/04/21 08:52:40;;;;;;;8.52;5.30;;;13.00;93.20;;;;;;4894572;29;20045;-72
2022/04/21 08:55:07;;;;;;;9.95;5.50;;;;;;;;;;4894365;29;20047;-73
2022/04/21 08:57:35;;;;;;;8.55;4.90;;;;;;;;;;4863365;29;20041;-73
2022/04/21 09:00:02;;;;;;;13.63;5.32;;;13.40;96.30;;;;;;4894433;29;20177;-73
2022/04/21 09:02:38;;;;;;;11.10;5.55;;;13.10;96.40;;;;;;4847843;29;20059;-72
2022/04/21 09:05:04;;;;;;;10.80;4.75;;;13.50;92.70;;;;;;4894205;29;20040;-73
2022/04/21 09:07:30;;;;;;;16.42;5.93;;;;;;;;;;4878658;29;20451;-73
2022/04/21 09:10:08;;;;;;;8.93;4.88;;;14.00;96.00;;;;;;4863105;29;20092;-73
2022/04/21 09:12:35;;;;;;;9.50;4.13;;;13.70;92.20;;;;;;4863256;29;20041;-73
2022/04/21 09:15:12;;;;;;;7.25;4.45;;;12.80;91.60;;;;;;4862992;29;20048;-73
2022/04/21 09:17:43;;;;;;;5.30;4.00;;;13.90;92.20;;;;;;4893879;29;20053;-73
2022/04/21 09:20:10;;;;;;;7.20;4.80;;;14.00;91.30;;;;;;4894273;29;20470;-73
2022/04/21 09:22:42;;;;;;;7.90;4.50;;;14.00;91.70;;;;;;4847920;29;20075;-73
2022/04/21 09:25:09;;;;;;;14.30;4.85;;;13.60;95.00;;;;;;4894365;29;20131;-73
2022/04/21 09:27:43;;;;;;;9.48;4.75;;;;;;;;;;4862972;29;20156;-72
2022/04/21 09:30:13;;;;;;;9.18;4.80;;;13.20;94.10;;;;;;4862815;29;20041;-73
2022/04/21 09:32:41;;;;;;;8.88;5.07;;;14.00;94.80;;;;;;4863257;29;20398;-73
2022/04/21 09:35:08;;;;;;;11.07;4.47;;;13.70;94.60;;;;;;4862848;29;20045;-73
2022/04/21 09:37:44;;;;;;;10.52;5.10;;;;;;;;;;4862813;29;20041;-73
2022/04/21 09:40:11;;;;;;;14.95;6.32;;;;;;;;;;4847656;29;20053;-73
2022/04/21 09:42:37;;;;;;;12.20;5.50;;;;;;;;;;4863652;29;20132;-73
2022/04/21 09:47:54;;;;;;;16.33;6.03;;;;;;;;;;4897600;29;20060;-72
2022/04/21 09:50:21;;;;;;;9.68;5.43;;;;;;;;;;4897827;29;20052;-73
2022/04/21 09:52:47;;;;;;;11.30;5.60;;;14.60;90.40;;;;;;4851157;29;20486;-73
2022/04/21 09:55:24;;;;;;;10.85;5.55;;;14.50;90.80;;;;;;4881925;29;20045;-73
2022/04/21 09:57:52;;;;;;;9.20;5.30;;;14.40;93.90;;;;;;4866365;29;20052;-73
2022/04/21 10:00:21;;;;;;;13.23;5.65;;;14.90;90.20;;;;;;4897526;29;20128;-73
2022/04/21 10:02:50;;;;;;;10.32;6.03;;;15.60;91.60;;;;;;4897356;29;20156;-73
2022/04/21 10:05:16;;;;;;;9.60;5.60;;;15.00;89.30;;;;;;4897648;29;20398;-73
2022/04/21 10:07:44;;;;;;;10.68;5.70;;;15.00;90.10;;;;;;4851119;29;20044;-73
2022/04/21 10:10:10;;;;;;;11.40;5.93;;;16.00;92.30;;;;;;4865952;29;20045;-72
2022/04/21 10:12:36;;;;;;;8.18;4.88;;;;;;;;;;4897044;29;20402;-73
2022/04/21 10:15:04;;;;;;;9.07;5.40;;;;;;;;;;4866110;29;20045;-73
2022/04/21 10:17:30;;;;;;;10.63;6.15;;;;;;;;;;4896487;29;20140;-73
2022/04/21 10:19:56;;;;;;;16.20;5.90;;;14.80;92.50;;;;;;4864827;29;20059;-73
2022/04/21 10:22:22;;;;;;;13.07;5.43;;;15.80;87.60;;;;;;4896089;29;20052;-72
2022/04/21 10:24:48;;;;;;;11.98;5.97;;;;;;;;;;4895597;29;20048;-73
2022/04/21 10:27:35;;;;;;;15.18;6.45;;;15.30;91.90;;;;;;4863830;29;20397;-73
2022/04/21 10:30:01;;;;;;;9.95;6.30;;;15.00;92.10;;;;;;4863368;29;20045;-72
2022/04/21 10:32:50;;;;;;;11.00;6.07;;;16.10;85.10;;;;;;4893782;29;20040;-71
2022/04/21 10:35:27;;;;;;;10.07;6.00;;;15.70;85.20;;;;;;4863295;29;20045;-73
2022/04/21 10:38:20;;;;;;;11.32;6.50;;;16.10;91.90;;;;;;4894608;29;20128;-73
2022/04/21 10:40:57;;;;;;;12.23;6.82;;;16.00;84.50;;;;;;4864071;29;20045;-74
2022/04/21 10:43:24;;;;;;;15.73;6.70;;;16.80;91.80;;;;;;4864616;29;20049;-75
2022/04/21 10:46:04;;;;;;;11.65;6.78;;;16.10;84.00;;;;;;4864536;29;20343;-75
2022/04/21 10:48:41;;;;;;;15.95;7.15;;;16.80;91.50;;;;;;4895208;29;20072;-70
2022/04/21 10:51:07;;;;;;;10.95;6.63;;;;;;;;;;4864578;29;20490;-75
2022/04/21 10:59:29;;;;;;;9.68;5.82;;;16.70;84.10;;;;;;4895517;29;20132;-74
2022/04/21 11:01:55;;;;;;;11.00;5.10;;;16.50;84.90;;;;;;4862903;29;20044;-73
2022/04/21 11:04:23;;;;;;;12.55;6.70;;;16.70;85.30;;;;;;4895112;29;20052;-73
2022/04/21 11:06:51;;;;;;;12.25;6.47;;;;;;;;;;4847691;29;20053;-73
2022/04/21 11:09:36;;;;;;;10.27;6.20;;;16.20;91.00;;;;;;4893926;29;20056;-73
2022/04/21 11:12:04;;;;;;;11.18;6.35;;;16.60;91.40;;;;;;4864260;29;20386;-73
2022/04/21 11:14:39;;;;;;;14.63;6.65;;;16.10;84.10;;;;;;4864134;29;20136;-71
2022/04/21 11:17:07;;;;;;;14.02;6.95;;;17.00;92.10;;;;;;4890874;29;160807;-71
2022/04/21 11:19:34;;;;;;;10.45;6.78;;;16.20;86.80;;;;;;4867985;29;20048;-71
2022/04/21 11:22:08;;;;;;;9.80;6.65;;;16.90;92.20;;;;;;4867920;29;20041;-71
2022/04/21 11:24:56;;;;;;;14.10;6.90;;;16.30;92.00;;;;;;4915022;29;20176;-70
2022/04/21 11:27:22;;;;;;;11.85;6.55;;;16.20;89.50;;;;;;4883410;29;20119;-71
2022/04/21 11:29:48;;;;;;;13.88;7.32;;;;;;;;;;4883413;29;20048;-71
2022/04/21 11:32:18;;;;;;;11.15;6.85;;;17.20;91.90;;;;;;4883687;29;20040;-71
2022/04/21 11:35:17;;;;;;;11.88;7.25;;;17.10;91.50;;;;;;4915233;29;20059;-72
2022/04/21 11:37:44;;;;;;;10.48;6.47;;;;;;;;;;4852546;29;20056;-72
2022/04/21 11:40:32;;;;;;;11.48;6.38;;;17.20;91.80;;;;;;4913511;29;20099;-72
2022/04/21 11:43:02;;;;;;;11.38;6.65;;;16.50;86.30;;;;;;4913306;29;20048;-71
2022/04/21 11:45:30;;;;;;;11.45;6.90;;;16.60;85.70;;;;;;4881544;29;20048;-74
2022/04/21 11:47:57;;;;;;;11.45;6.60;;;;;;;;;;4913928;29;20059;-73
2022/04/21 11:50:26;;;;;;;11.65;6.05;;;17.50;91.60;;;;;;4882671;29;20049;-73
2022/04/21 11:52:55;;;;;;;9.20;5.88;;;;;;;;;;4913935;29;20037;-73
2022/04/21 11:55:23;;;;;;;12.80;6.28;;;16.90;85.10;;;;;;4898742;29;20465;-73
2022/04/21 11:57:49;;;;;;;11.52;6.18;;;;;;;;;;4914139;29;20453;-74
2022/04/21 12:00:17;;;;;;;10.90;6.18;;;17.20;85.30;;;;;;4882679;29;20048;-74
2022/04/21 12:08:14;;;;;;;14.15;6.88;;;17.00;90.80;;;;;;4913669;29;20052;-73
2022/04/21 12:10:41;;;;;;;11.00;6.30;;;16.20;90.70;;;;;;4882423;29;20037;-73
2022/04/21 12:13:07;;;;;;;12.43;6.32;;;17.10;83.30;;;;;;4882507;29;20045;-73
2022/04/21 12:15:37;;;;;;;11.30;6.43;;;17.30;83.90;;;;;;4882242;29;20041;-73
2022/04/21 12:18:03;;;;;;;10.82;6.80;;;;;;;;;;4893538;29;20053;-72
2022/04/21 12:20:30;;;;;;;11.45;6.60;;;16.40;87.80;;;;;;4873135;29;20074;-72
2022/04/21 12:22:57;;;;;;;15.75;7.30;;;17.50;90.90;;;;;;4894751;29;20115;-73
2022/04/21 12:25:30;;;;;;;19.00;7.00;;;17.00;81.80;;;;;;4863243;29;20080;-78
2022/04/21 12:28:04;;;;;;;11.23;6.63;;;16.80;84.00;;;;;;4866734;29;20072;-72
2022/04/21 12:30:30;;;;;;;12.20;7.05;;;;;;;;;;4882175;29;20052;-73
2022/04/21 12:32:56;;;;;;;12.43;6.20;;;17.50;91.40;;;;;;4878990;29;20068;-73
2022/04/21 12:36:06;;;;;;;13.07;6.10;;;17.20;82.60;;;;;;4877506;29;20529;-72
2022/04/21 12:38:50;;;;;;;15.80;6.57;;;;;;;;;;4818079;29;20050;-71
2022/04/21 12:41:17;;;;;;;14.80;7.25;;;;;;;;;;4807416;29;20173;-73
2022/04/21 12:43:43;;;;;;;12.68;7.82;;;17.20;90.30;;;;;;4827874;29;20064;-73
2022/04/21 12:46:09;;;;;;;16.42;7.03;;;;;;;;;;4863127;29;20127;-73
2022/04/21 12:48:47;;;;;;;10.77;6.50;;;16.40;90.30;;;;;;4862966;29;20041;-72
2022/04/21 12:51:20;;;;;;;11.40;6.85;;;16.60;90.20;;;;;;4847612;29;20040;-72
2022/04/21 12:53:56;;;;;;;28.08;8.10;;;17.30;82.60;;;;;;4863120;29;20052;-72
2022/04/21 12:56:35;;;;;;;16.73;7.60;;;18.40;84.40;;;;;;4894099;29;20053;-72
2022/04/21 12:59:02;;;;;;;10.02;6.53;;;17.70;90.30;;;;;;4862989;29;20105;-72
2022/04/21 13:01:28;;;;;;;11.13;6.75;;;17.30;90.20;;;;;;4878175;29;20083;-73
2022/04/21 13:03:54;;;;;;;13.75;7.03;;;;;;;;;;4862894;29;20049;-72
2022/04/21 13:06:27;;;;;;;13.57;6.93;;;17.90;90.10;;;;;;4862802;29;20177;-72
2022/04/21 13:08:57;;;;;;;14.63;6.97;;;17.90;81.00;;;;;;4862759;29;20466;-72
2022/04/21 13:11:23;;;;;;;13.48;6.97;;;18.40;88.90;;;;;;4863123;29;20120;-72
2022/04/21 13:13:51;;;;;;;13.27;6.60;;;17.70;79.30;;;;;;4863315;29;20040;-72
2022/04/21 13:16:18;;;;;;;13.48;6.82;;;17.70;79.90;;;;;;4862884;29;20049;-72
2022/04/21 13:18:45;;;;;;;11.63;6.25;;;16.60;88.40;;;;;;4862530;29;20072;-72
2022/04/21 13:23:55;;;;;;;10.73;6.25;;;16.20;89.10;;;;;;4893691;29;20048;-72
2022/04/21 13:26:28;;;;;;;15.05;6.47;;;17.10;80.50;;;;;;4878150;29;20061;-72
2022/04/21 13:28:55;;;;;;;11.13;5.47;;;18.10;90.00;;;;;;4862749;29;20106;-72
2022/04/21 13:34:06;;;;;;;13.48;6.15;;;;;;;;;;4893595;29;20132;-72
2022/04/21 13:36:32;;;;;;;10.63;5.82;;;;;;;;;;4862612;29;20553;-73
2022/04/21 13:38:58;;;;;;;15.52;7.38;;;17.50;79.00;;;;;;4862730;29;20132;-73
2022/04/21 13:41:26;;;;;;;14.20;6.40;;;;;;;;;;4847317;29;20049;-73
2022/04/21 13:43:52;;;;;;;12.00;6.38;;;;;;;;;;4862642;29;20053;-73
2022/04/21 13:46:18;;;;;;;11.90;6.68;;;;;;;;;;4862423;29;20048;-73
2022/04/21 13:48:44;;;;;;;15.27;6.15;;;17.20;87.30;;;;;;4862766;29;20371;-73
2022/04/21 13:51:10;;;;;;;14.15;6.47;;;;;;;;;;4878277;29;20047;-73
2022/04/21 13:53:36;;;;;;;14.30;6.78;;;;;;;;;;4847039;29;20041;-73
2022/04/21 13:56:06;;;;;;;11.15;6.28;;;17.90;79.80;;;;;;4847153;29;20048;-73
2022/04/21 13:58:32;;;;;;;12.23;6.40;;;;;;;;;;4862144;29;20100;-73
2022/04/21 14:00:58;;;;;;;13.95;6.07;;;;;;;;;;4862385;29;20049;-73
2022/04/21 14:03:24;;;;;;;13.07;6.63;;;;;;;;;;4862387;29;20045;-73
2022/04/21 14:05:50;;;;;;;13.25;6.32;;;;;;;;;;4862434;29;20049;-73
2022/04/21 14:08:17;;;;;;;11.45;5.60;;;;;;;;;;4862582;29;20041;-73
2022/04/21 14:10:44;;;;;;;10.00;5.88;;;;;;;;;;4862493;29;20041;-73
2022/04/21 14:13:10;;;;;;;11.73;5.80;;;16.70;87.50;;;;;;4862256;29;20044;-72
2022/04/21 14:15:36;;;;;;;11.85;5.95;;;17.00;87.30;;;;;;4893478;29;20465;-72
2022/04/21 14:18:02;;;;;;;14.65;5.88;;;17.40;87.60;;;;;;4893462;29;20053;-73
2022/04/21 14:20:28;;;;;;;18.73;6.20;;;;;;;;;;4893050;29;20131;-73
2022/04/21 14:22:55;;;;;;;14.45;5.95;;;;;;;;;;4862490;29;20041;-73
2022/04/21 14:25:21;;;;;;;15.05;6.38;;;;;;;;;;4862097;29;20092;-73
2022/04/21 14:27:47;;;;;;;11.48;5.78;;;;;;;;;;4862064;29;20052;-73
2022/04/21 14:30:13;;;;;;;13.32;5.70;;;;;;;;;;4880232;29;20057;-73
2022/04/21 14:32:40;;;;;;;13.18;5.72;;;;;;;;;;4850304;29;20061;-73
2022/04/21 14:35:07;;;;;;;16.35;6.70;;;;;;;;;;4881534;29;20101;-74
2022/04/21 14:45:47;;;;;;;13.95;6.70;;;;;;;;;;4915456;29;20139;-73
2022/04/21 14:48:14;;;;;;;14.80;6.80;;;;;;;;;;4914828;29;20504;-73
2022/04/21 14:50:40;;;;;;;13.70;7.15;;;;;;;;;;4883863;29;20048;-73
2022/04/21 14:53:06;;;;;;;13.45;6.97;;;;;;;;;;4914940;29;20045;-73